Time;durP1;ratioP1;P1;durP2;ratioP2;P2;SDS_P1;SDS_P2;PMS_P1;PMS_P2;Temp;Humidity;BMP_temperature;BMP_pressure;BME280_temperature;BME280_humidity;BME280_pressure;Samples;Min_cycle;Max_cycle;Signal;HPM_P1;HPM_P2
2024/01/18 00:00:35;;;;;;;35.70;15.60;;;;;;;-14.77;100.00;138712.88;106994;1274;25359;-53
2024/01/18 00:03:21;;;;;;;39.50;18.30;;;;;;;-14.75;100.00;138716.34;107016;1273;25369;-54
2024/01/18 00:06:08;;;;;;;39.00;18.20;;;;;;;-14.75;100.00;138719.03;107000;1272;25359;-54
2024/01/18 00:08:53;;;;;;;41.20;18.80;;;;;;;-14.72;100.00;138723.91;107003;1268;25343;-54
2024/01/18 00:11:39;;;;;;;53.80;19.40;;;;;;;-14.69;100.00;138731.77;106961;1263;25493;-53
2024/01/18 00:14:25;;;;;;;45.30;19.00;;;;;;;-14.68;100.00;138734.45;106985;1272;25408;-54
2024/01/18 00:17:10;;;;;;;36.80;17.50;;;;;;;-14.69;100.00;138732.98;106997;1266;22587;-54
2024/01/18 00:19:56;;;;;;;31.00;16.90;;;;;;;-14.73;100.00;138721.97;107033;1269;25423;-57
2024/01/18 00:22:42;;;;;;;40.40;19.60;;;;;;;-14.75;100.00;138718.53;106991;1274;25399;-55
2024/01/18 00:25:28;;;;;;;36.80;18.60;;;;;;;-14.77;100.00;138711.67;107034;1263;25354;-54
2024/01/18 00:28:14;;;;;;;38.10;18.70;;;;;;;-14.75;100.00;138718.53;107058;1257;25520;-55
2024/01/18 00:30:59;;;;;;;36.10;19.40;;;;;;;-14.75;100.00;138718.78;107153;1267;25411;-54
2024/01/18 00:33:45;;;;;;;37.70;17.60;;;;;;;-14.77;100.00;138712.89;107102;1272;25387;-54
2024/01/18 00:36:31;;;;;;;33.10;17.50;;;;;;;-14.81;100.00;138702.34;107084;1254;25350;-54
2024/01/18 00:39:19;;;;;;;32.00;17.00;;;;;;;-14.83;100.00;138698.44;107126;1254;23847;-54
2024/01/18 00:42:05;;;;;;;37.80;18.80;;;;;;;-14.88;100.00;138686.42;106947;1256;24221;-54
2024/01/18 00:44:51;;;;;;;41.10;19.90;;;;;;;-14.90;100.00;138680.31;107045;1263;25357;-54
2024/01/18 00:47:37;;;;;;;42.60;19.90;;;;;;;-14.92;100.00;138676.13;107072;1273;25587;-54
2024/01/18 00:50:22;;;;;;;38.00;17.30;;;;;;;-14.94;100.00;138672.20;107124;1268;25507;-54
2024/01/18 00:53:08;;;;;;;33.90;17.80;;;;;;;-14.95;100.00;138669.50;107033;1266;24247;-53
2024/01/18 00:55:53;;;;;;;36.10;17.90;;;;;;;-14.94;100.00;138671.47;107060;1267;25336;-53
2024/01/18 00:58:42;;;;;;;42.70;19.80;;;;;;;-14.95;100.00;138669.03;107069;1264;25937;-54
2024/01/18 01:01:28;;;;;;;39.40;18.30;;;;;;;-14.95;100.00;138670.02;107075;1273;25351;-54
2024/01/18 01:04:14;;;;;;;43.30;19.20;;;;;;;-14.93;100.00;138673.42;107138;1264;25382;-55
2024/01/18 01:06:59;;;;;;;37.90;18.30;;;;;;;-14.94;100.00;138672.70;107102;1274;25494;-54
2024/01/18 01:09:45;;;;;;;41.40;19.30;;;;;;;-14.94;100.00;138672.20;107099;1263;25344;-53
2024/01/18 01:12:31;;;;;;;44.80;19.60;;;;;;;-14.93;100.00;138673.67;107074;1269;25406;-54
2024/01/18 01:15:17;;;;;;;43.00;18.90;;;;;;;-14.93;100.00;138674.41;107067;1266;25404;-52
2024/01/18 01:18:03;;;;;;;40.10;18.80;;;;;;;-14.92;100.00;138677.84;107126;1273;25405;-54
2024/01/18 01:20:49;;;;;;;38.50;18.40;;;;;;;-14.90;100.00;138681.03;107146;1267;25525;-54
2024/01/18 01:23:41;;;;;;;41.50;19.00;;;;;;;-14.90;100.00;138682.03;107119;1274;25331;-53
2024/01/18 01:26:27;;;;;;;39.10;20.60;;;;;;;-14.87;100.00;138687.89;107154;1266;25421;-52
2024/01/18 01:29:13;;;;;;;31.90;16.60;;;;;;;-14.83;100.00;138697.45;107001;1263;25436;-54
2024/01/18 01:31:58;;;;;;;35.60;17.60;;;;;;;-14.81;100.00;138703.34;107008;1264;25344;-53
2024/01/18 01:34:44;;;;;;;41.40;18.60;;;;;;;-14.79;100.00;138708.23;106979;1264;25344;-53
2024/01/18 01:37:30;;;;;;;37.80;18.20;;;;;;;-14.76;100.00;138716.08;106978;1264;25443;-53
2024/01/18 01:40:18;;;;;;;34.80;15.60;;;;;;;-14.71;100.00;138727.59;107023;1273;25618;-54
2024/01/18 01:43:04;;;;;;;44.10;18.20;;;;;;;-14.68;100.00;138735.22;107009;1264;25490;-55
2024/01/18 01:45:49;;;;;;;44.00;20.90;;;;;;;-14.66;100.00;138739.59;107049;1264;25392;-54
2024/01/18 01:48:35;;;;;;;41.10;17.10;;;;;;;-14.62;100.00;138746.97;107011;1274;25374;-53
2024/01/18 01:51:22;;;;;;;39.90;19.90;;;;;;;-14.60;100.00;138752.34;107063;1274;25322;-55
2024/01/18 01:54:08;;;;;;;42.10;18.80;;;;;;;-14.58;100.00;138756.75;107093;1266;25408;-55
2024/01/18 01:56:56;;;;;;;38.80;20.70;;;;;;;-14.57;100.00;138760.69;107055;1270;22604;-53
2024/01/18 01:59:42;;;;;;;43.10;18.80;;;;;;;-14.55;100.00;138763.84;107087;1254;25344;-55
2024/01/18 02:02:29;;;;;;;35.40;17.10;;;;;;;-14.58;100.00;138757.25;107139;1266;23267;-53
2024/01/18 02:05:16;;;;;;;37.50;17.80;;;;;;;-14.58;100.00;138757.00;107194;1260;22561;-54
2024/01/18 02:08:01;;;;;;;38.60;19.20;;;;;;;-14.55;100.00;138763.86;107048;1258;24368;-53
2024/01/18 02:10:47;;;;;;;45.10;19.30;;;;;;;-14.51;100.00;138774.59;106996;1266;25407;-55
2024/01/18 02:13:34;;;;;;;40.90;21.40;;;;;;;-14.47;100.00;138783.44;107005;1268;25456;-53
2024/01/18 02:16:21;;;;;;;37.70;19.30;;;;;;;-14.43;100.00;138795.19;107056;1270;25376;-54
2024/01/18 02:19:07;;;;;;;41.80;18.10;;;;;;;-14.37;100.00;138807.45;107087;1267;25394;-54
2024/01/18 02:21:53;;;;;;;40.30;21.50;;;;;;;-14.33;100.00;138818.97;107068;1273;25489;-53
2024/01/18 02:24:47;;;;;;;37.20;20.00;;;;;;;-14.30;100.00;138826.56;107095;1264;25376;-54
2024/01/18 02:27:33;;;;;;;38.70;20.90;;;;;;;-14.23;100.00;138843.47;106947;1266;25341;-54
2024/01/18 02:30:19;;;;;;;33.20;18.90;;;;;;;-14.11;100.00;138869.48;107056;1267;25403;-54
2024/01/18 02:33:05;;;;;;;39.30;20.30;;;;;;;-14.04;100.00;138886.89;107054;1274;24304;-53
2024/01/18 02:35:52;;;;;;;39.50;20.10;;;;;;;-13.97;100.00;138903.56;107060;1264;23032;-54
2024/01/18 02:38:38;;;;;;;37.50;19.60;;;;;;;-13.92;100.00;138915.84;107023;1264;25491;-53
2024/01/18 02:41:24;;;;;;;38.40;21.00;;;;;;;-13.88;100.00;138927.11;107071;1257;25516;-53
2024/01/18 02:44:11;;;;;;;43.30;21.00;;;;;;;-13.85;100.00;138933.50;107105;1254;25380;-54
2024/01/18 02:46:57;;;;;;;44.40;21.30;;;;;;;-13.83;100.00;138937.91;107062;1268;25465;-53
2024/01/18 02:49:42;;;;;;;38.20;20.90;;;;;;;-13.75;100.00;138956.55;107102;1254;25347;-55
2024/01/18 02:52:28;;;;;;;37.70;19.20;;;;;;;-13.67;100.00;138975.19;107038;1255;23276;-54
2024/01/18 02:55:14;;;;;;;38.80;19.90;;;;;;;-13.61;100.00;138989.42;107105;1267;25330;-53
2024/01/18 02:57:59;;;;;;;34.60;16.80;;;;;;;-13.54;100.00;139007.58;106999;1266;25353;-54
2024/01/18 03:00:45;;;;;;;39.80;20.60;;;;;;;-13.48;100.00;139022.05;106925;1264;25402;-54
2024/01/18 03:03:31;;;;;;;36.90;19.20;;;;;;;-13.40;100.00;139040.47;106986;1273;25386;-53
2024/01/18 03:06:16;;;;;;;35.70;16.60;;;;;;;-13.34;100.00;139055.17;106974;1260;25526;-55
2024/01/18 03:09:02;;;;;;;33.50;19.50;;;;;;;-13.25;100.00;139075.78;106984;1264;25389;-53
2024/01/18 03:11:48;;;;;;;39.10;19.80;;;;;;;-13.18;100.00;139092.92;107119;1272;25411;-55
2024/01/18 03:14:34;;;;;;;41.80;22.00;;;;;;;-13.11;100.00;139111.34;107150;1267;25414;-54
2024/01/18 03:17:23;;;;;;;39.20;20.30;;;;;;;-13.03;100.00;139129.77;107169;1267;22539;-55
2024/01/18 03:20:10;;;;;;;42.50;21.10;;;;;;;-12.95;100.00;139148.42;107118;1267;25335;-57
2024/01/18 03:22:56;;;;;;;40.60;21.00;;;;;;;-12.84;100.00;139174.44;107067;1257;25490;-55
2024/01/18 03:25:43;;;;;;;38.90;20.70;;;;;;;-12.77;100.00;139190.66;107144;1264;26672;-56
2024/01/18 03:28:29;;;;;;;45.60;22.00;;;;;;;-12.71;100.00;139206.13;107114;1266;25485;-54
2024/01/18 03:31:14;;;;;;;43.90;23.00;;;;;;;-12.69;100.00;139210.05;107111;1267;25379;-56
2024/01/18 03:34:00;;;;;;;41.30;20.70;;;;;;;-12.62;100.00;139226.50;107216;1267;25372;-56
2024/01/18 03:36:46;;;;;;;40.20;22.30;;;;;;;-12.50;100.00;139256.95;107094;1257;25408;-53
2024/01/18 03:39:36;;;;;;;40.10;20.40;;;;;;;-12.45;100.00;139268.73;107223;1263;25354;-54
2024/01/18 03:42:21;;;;;;;44.70;21.40;;;;;;;-12.34;100.00;139295.00;107033;1263;25717;-55
2024/01/18 03:45:08;;;;;;;40.90;21.40;;;;;;;-12.28;100.00;139311.00;107195;1267;23483;-53
2024/01/18 03:47:54;;;;;;;40.50;19.90;;;;;;;-12.18;100.00;139334.59;107211;1267;25387;-52
2024/01/18 03:50:39;;;;;;;36.90;20.60;;;;;;;-12.04;100.00;139367.28;107022;1254;26490;-54
2024/01/18 03:53:25;;;;;;;40.50;20.50;;;;;;;-12.00;100.00;139376.09;107082;1266;25351;-56
2024/01/18 03:56:12;;;;;;;37.10;19.90;;;;;;;-11.98;100.00;139381.75;107194;1267;25455;-54
2024/01/18 03:58:58;;;;;;;37.20;19.60;;;;;;;-11.95;100.00;139389.16;107107;1267;25785;-56
2024/01/18 04:01:44;;;;;;;39.80;20.00;;;;;;;-11.93;100.00;139393.81;107107;1257;25353;-54
2024/01/18 04:04:29;;;;;;;38.40;18.70;;;;;;;-11.88;100.00;139405.59;107100;1267;25366;-54
2024/01/18 04:07:17;;;;;;;32.30;18.20;;;;;;;-11.84;100.00;139414.66;107088;1269;25525;-55
2024/01/18 04:10:04;;;;;;;32.10;19.00;;;;;;;-11.80;100.00;139425.47;107096;1263;25412;-54
2024/01/18 04:12:50;;;;;;;45.30;19.90;;;;;;;-11.79;100.00;139428.17;107166;1260;24356;-53
2024/01/18 04:15:35;;;;;;;32.30;17.70;;;;;;;-11.75;100.00;139436.03;107066;1263;25375;-54
2024/01/18 04:18:21;;;;;;;33.60;18.70;;;;;;;-11.74;100.00;139438.50;107066;1267;25369;-57
2024/01/18 04:21:08;;;;;;;36.40;19.60;;;;;;;-11.74;100.00;139438.22;107315;1256;22531;-54
2024/01/18 04:23:56;;;;;;;35.10;19.00;;;;;;;-11.68;100.00;139453.23;106997;1264;25341;-54
2024/01/18 04:26:42;;;;;;;38.70;21.60;;;;;;;-11.67;100.00;139455.70;106973;1259;25450;-55
2024/01/18 04:29:28;;;;;;;37.10;19.60;;;;;;;-11.67;100.00;139457.17;107147;1260;22527;-55
2024/01/18 04:32:13;;;;;;;41.60;22.30;;;;;;;-11.65;100.00;139462.11;107068;1257;25421;-55
2024/01/18 04:34:59;;;;;;;43.80;22.10;;;;;;;-11.64;100.00;139462.84;107125;1264;25445;-54
2024/01/18 04:37:45;;;;;;;46.20;21.00;;;;;;;-11.64;100.00;139464.31;107128;1264;25375;-55
2024/01/18 04:40:31;;;;;;;37.80;20.80;;;;;;;-11.60;100.00;139472.92;107200;1265;25347;-53
2024/01/18 04:43:17;;;;;;;38.20;18.90;;;;;;;-11.55;100.00;139484.94;107247;1254;25525;-55
2024/01/18 04:46:04;;;;;;;34.50;18.60;;;;;;;-11.51;100.00;139495.28;107031;1254;25363;-55
2024/01/18 04:48:49;;;;;;;38.40;18.40;;;;;;;-11.45;100.00;139508.33;107167;1257;25586;-54
2024/01/18 04:51:35;;;;;;;37.60;19.90;;;;;;;-11.40;100.00;139521.83;107155;1252;25366;-55
2024/01/18 04:54:21;;;;;;;33.90;19.40;;;;;;;-11.33;100.00;139537.08;107043;1261;25411;-54
2024/01/18 04:57:07;;;;;;;33.40;18.10;;;;;;;-11.27;100.00;139552.33;107148;1266;25493;-53
2024/01/18 04:59:53;;;;;;;38.80;20.70;;;;;;;-11.21;100.00;139568.31;107158;1257;25437;-53
2024/01/18 05:02:40;;;;;;;39.40;20.00;;;;;;;-11.15;100.00;139581.59;107107;1260;25335;-53
2024/01/18 05:05:26;;;;;;;44.30;22.70;;;;;;;-11.11;100.00;139589.22;107167;1260;25580;-53
2024/01/18 05:08:12;;;;;;;39.70;21.00;;;;;;;-11.07;100.00;139600.78;107087;1257;22577;-54
2024/01/18 05:10:58;;;;;;;37.90;20.00;;;;;;;-11.03;100.00;139608.91;107107;1253;25359;-54
2024/01/18 05:13:44;;;;;;;38.30;19.50;;;;;;;-10.95;100.00;139628.09;107073;1265;25372;-54
2024/01/18 05:16:32;;;;;;;41.80;21.40;;;;;;;-10.86;100.00;139651.72;107150;1254;25363;-55
2024/01/18 05:19:18;;;;;;;40.40;21.20;;;;;;;-10.82;100.00;139661.55;107180;1256;25389;-53
2024/01/18 05:22:04;;;;;;;35.00;19.70;;;;;;;-10.74;100.00;139681.22;106806;1264;25363;-55
2024/01/18 05:24:51;;;;;;;33.70;19.80;;;;;;;-10.65;100.00;139700.41;106749;1266;25372;-54
2024/01/18 05:27:37;;;;;;;35.80;19.10;;;;;;;-10.56;100.00;139723.31;107020;1264;25360;-55
2024/01/18 05:30:23;;;;;;;33.40;19.70;;;;;;;-10.42;100.00;139757.28;107026;1263;25423;-55
2024/01/18 05:33:09;;;;;;;34.90;18.00;;;;;;;-10.29;100.00;139789.25;106951;1263;61806;-55
2024/01/18 05:35:55;;;;;;;41.00;20.20;;;;;;;-10.14;100.00;139824.70;107003;1264;25398;-54
2024/01/18 05:38:40;;;;;;;40.70;20.00;;;;;;;-10.04;100.00;139847.08;106960;1264;25338;-53
2024/01/18 05:41:28;;;;;;;33.30;19.60;;;;;;;-9.92;100.00;139877.38;107006;1267;25391;-54
2024/01/18 05:44:13;;;;;;;41.60;18.80;;;;;;;-9.80;100.00;139905.92;106978;1263;25407;-56
2024/01/18 05:46:59;;;;;;;35.80;18.30;;;;;;;-9.70;100.00;139928.34;107002;1264;25362;-58
2024/01/18 05:49:44;;;;;;;37.20;19.90;;;;;;;-9.59;100.00;139955.70;107038;1263;25514;-58
2024/01/18 05:52:30;;;;;;;30.80;16.90;;;;;;;-9.48;100.00;139982.31;107033;1264;25447;-57
2024/01/18 05:55:16;;;;;;;38.30;18.80;;;;;;;-9.35;100.00;140014.58;106990;1273;25362;-58
2024/01/18 05:58:02;;;;;;;35.50;18.10;;;;;;;-9.24;100.00;140041.69;107004;1264;25399;-55
2024/01/18 06:00:48;;;;;;;30.90;17.40;;;;;;;-9.11;100.00;140072.22;106994;1264;25334;-56
2024/01/18 06:03:35;;;;;;;31.50;17.20;;;;;;;-8.99;100.00;140101.81;107001;1273;25366;-58
2024/01/18 06:06:21;;;;;;;29.90;16.20;;;;;;;-8.85;100.00;140132.66;106999;1260;25565;-57
2024/01/18 06:09:07;;;;;;;30.70;16.40;;;;;;;-8.71;100.00;140168.86;107028;1263;25504;-57
2024/01/18 06:11:52;;;;;;;30.60;16.10;;;;;;;-8.57;100.00;140202.17;107003;1263;25335;-58
2024/01/18 06:14:38;;;;;;;33.20;15.30;;;;;;;-8.41;100.00;140240.63;106972;1264;25354;-58
2024/01/18 06:17:24;;;;;;;26.40;14.70;;;;;;;-8.26;100.00;140275.84;107001;1268;25411;-59
2024/01/18 06:20:13;;;;;;;30.60;15.80;;;;;;;-8.15;100.00;140302.00;107084;1264;25369;-57
2024/01/18 06:23:00;;;;;;;25.90;15.60;;;;;;;-8.07;100.00;140321.72;107159;1260;22533;-60
2024/01/18 06:25:46;;;;;;;24.40;15.60;;;;;;;-7.98;100.00;140343.94;107093;1257;25366;-57
2024/01/18 06:28:31;;;;;;;30.50;17.40;;;;;;;-7.90;100.00;140361.95;107089;1266;25343;-60
2024/01/18 06:31:19;;;;;;;23.70;14.90;;;;;;;-7.80;100.00;140386.14;107091;1257;25343;-59
2024/01/18 06:34:05;;;;;;;23.10;13.70;;;;;;;-7.74;100.00;140401.19;107069;1258;25385;-58
2024/01/18 06:36:51;;;;;;;22.60;13.60;;;;;;;-7.66;100.00;140421.42;107042;1273;22638;-57
2024/01/18 06:39:37;;;;;;;24.40;15.80;;;;;;;-7.58;100.00;140440.94;107093;1267;25411;-61
2024/01/18 06:42:23;;;;;;;26.70;15.40;;;;;;;-7.50;100.00;140459.20;107051;1264;25420;-61
2024/01/18 06:45:09;;;;;;;24.80;15.70;;;;;;;-7.47;100.00;140467.09;107177;1264;25414;-61
2024/01/18 06:47:55;;;;;;;24.90;14.60;;;;;;;-7.44;100.00;140474.25;107088;1266;25418;-58
2024/01/18 06:50:41;;;;;;;25.00;14.00;;;;;;;-7.39;100.00;140486.59;106971;1265;25442;-60
2024/01/18 06:53:27;;;;;;;21.30;13.10;;;;;;;-7.29;100.00;140511.03;107027;1257;25408;-58
2024/01/18 06:56:16;;;;;;;28.40;16.70;;;;;;;-7.24;100.00;140523.88;107017;1257;25372;-61
2024/01/18 06:59:03;;;;;;;24.20;13.80;;;;;;;-7.25;100.00;140519.44;106997;1256;25412;-59
2024/01/18 07:01:49;;;;;;;23.60;13.80;;;;;;;-7.24;100.00;140522.88;107031;1256;25347;-61
2024/01/18 07:04:35;;;;;;;23.40;14.60;;;;;;;-7.20;100.00;140532.53;106965;1257;25362;-57
2024/01/18 07:07:20;;;;;;;22.50;14.90;;;;;;;-7.22;100.00;140529.06;106930;1256;23937;-61
2024/01/18 07:10:07;;;;;;;26.90;15.30;;;;;;;-7.18;100.00;140535.72;107100;1266;25436;-61
2024/01/18 07:12:53;;;;;;;23.70;14.60;;;;;;;-7.15;100.00;140544.63;107070;1257;25421;-61
2024/01/18 07:15:38;;;;;;;21.90;14.70;;;;;;;-7.12;100.00;140551.77;107064;1253;25423;-61
2024/01/18 07:18:25;;;;;;;22.00;13.80;;;;;;;-7.10;100.00;140555.97;107061;1256;25365;-57
2024/01/18 07:21:11;;;;;;;22.60;14.00;;;;;;;-7.06;100.00;140565.34;107143;1263;25343;-59
2024/01/18 07:23:56;;;;;;;22.00;13.50;;;;;;;-7.04;100.00;140571.28;107118;1255;25372;-59
2024/01/18 07:26:42;;;;;;;22.00;13.80;;;;;;;-7.05;100.00;140567.09;107169;1262;22559;-57
2024/01/18 07:29:27;;;;;;;21.60;14.00;;;;;;;-7.04;100.00;140571.03;107060;1256;25420;-57
2024/01/18 07:32:13;;;;;;;23.80;13.40;;;;;;;-7.00;100.00;140579.67;107151;1272;25359;-63
2024/01/18 07:35:00;;;;;;;23.70;13.80;;;;;;;-6.97;100.00;140586.59;107139;1257;25393;-59
2024/01/18 07:37:45;;;;;;;26.60;14.90;;;;;;;-6.91;100.00;140601.67;107243;1264;25359;-67
2024/01/18 07:40:31;;;;;;;25.30;15.80;;;;;;;-6.84;100.00;140618.70;107178;1254;25342;-60
2024/01/18 07:43:17;;;;;;;22.70;14.50;;;;;;;-6.81;100.00;140626.38;107062;1264;25408;-58
2024/01/18 07:46:03;;;;;;;22.40;14.00;;;;;;;-6.82;100.00;140623.41;107275;1253;25421;-62
2024/01/18 07:48:49;;;;;;;21.40;13.80;;;;;;;-6.82;100.00;140623.89;107107;1257;25346;-62
2024/01/18 07:51:35;;;;;;;22.60;14.10;;;;;;;-6.79;100.00;140630.58;108110;1253;23107;-61
2024/01/18 07:54:22;;;;;;;20.50;13.60;;;;;;;-6.76;100.00;140638.23;108029;1259;22630;-57
2024/01/18 07:57:08;;;;;;;21.20;12.80;;;;;;;-6.75;100.00;140639.95;107130;1262;23275;-56
2024/01/18 07:59:53;;;;;;;25.50;14.60;;;;;;;-6.72;100.00;140646.86;108014;1263;22412;-60
2024/01/18 08:02:39;;;;;;;24.50;14.70;;;;;;;-6.69;100.00;140654.77;107224;1265;25554;-56
2024/01/18 08:05:27;;;;;;;21.50;14.20;;;;;;;-6.65;100.00;140664.91;107083;1260;22672;-61
2024/01/18 08:08:13;;;;;;;22.70;13.80;;;;;;;-6.56;100.00;140685.91;107057;1263;25368;-56
2024/01/18 08:10:59;;;;;;;21.30;13.70;;;;;;;-6.57;100.00;140685.39;106918;1256;25484;-58
2024/01/18 08:13:46;;;;;;;21.50;13.50;;;;;;;-6.61;100.00;140674.05;107000;1266;25493;-62
2024/01/18 08:16:32;;;;;;;25.30;14.00;;;;;;;-6.56;100.00;140685.91;106964;1260;25481;-58
2024/01/18 08:19:21;;;;;;;22.30;14.60;;;;;;;-6.51;100.00;140699.23;106983;1253;25344;-58
2024/01/18 08:22:07;;;;;;;23.10;14.10;;;;;;;-6.47;100.00;140708.63;106929;1264;25505;-57
2024/01/18 08:24:53;;;;;;;20.70;13.90;;;;;;;-6.39;100.00;140728.14;106953;1256;25366;-61
2024/01/18 08:27:40;;;;;;;23.90;13.70;;;;;;;-6.38;100.00;140729.89;107047;1274;25343;-61
2024/01/18 08:30:26;;;;;;;20.10;12.80;;;;;;;-6.34;100.00;140739.77;107387;1266;23216;-61
2024/01/18 08:33:12;;;;;;;20.60;13.40;;;;;;;-6.28;100.00;140754.09;107259;1255;25329;-58
2024/01/18 08:35:58;;;;;;;23.40;14.70;;;;;;;-6.22;100.00;140768.17;107516;1263;25493;-59
2024/01/18 08:38:44;;;;;;;24.60;15.10;;;;;;;-6.20;100.00;140772.13;107205;1257;22471;-61
2024/01/18 08:41:30;;;;;;;21.80;13.30;;;;;;;-6.16;100.00;140782.78;107171;1252;25436;-60
2024/01/18 08:44:16;;;;;;;22.30;15.00;;;;;;;-6.09;100.00;140799.83;107316;1266;23852;-60
2024/01/18 08:47:02;;;;;;;22.40;14.60;;;;;;;-6.05;100.00;140810.45;107261;1264;25819;-59
2024/01/18 08:49:48;;;;;;;24.20;15.40;;;;;;;-6.18;100.00;140779.06;106934;1269;24269;-58
2024/01/18 08:52:34;;;;;;;22.90;14.90;;;;;;;-6.18;100.00;140778.06;106898;1266;25462;-62
2024/01/18 08:55:19;;;;;;;23.50;15.20;;;;;;;-6.19;100.00;140776.59;107093;1258;25446;-58
2024/01/18 08:58:07;;;;;;;33.80;17.70;;;;;;;-6.18;100.00;140777.83;107019;1260;25395;-61
2024/01/18 09:00:52;;;;;;;23.30;15.40;;;;;;;-6.13;100.00;140791.16;107024;1251;25357;-60
2024/01/18 09:03:38;;;;;;;22.10;15.30;;;;;;;-6.11;100.00;140795.13;107008;1264;24237;-59
2024/01/18 09:06:25;;;;;;;21.50;14.60;;;;;;;-6.13;100.00;140789.95;107167;1258;25350;-60
2024/01/18 09:09:11;;;;;;;24.30;13.80;;;;;;;-6.14;100.00;140787.22;107191;1260;25420;-61
2024/01/18 09:11:58;;;;;;;24.60;15.90;;;;;;;-6.15;100.00;140785.23;107025;1254;25487;-60
2024/01/18 09:14:44;;;;;;;21.30;15.20;;;;;;;-6.11;100.00;140795.14;106981;1263;25382;-57
2024/01/18 09:17:30;;;;;;;21.80;14.00;;;;;;;-6.15;100.00;140785.23;106888;1275;25411;-60
2024/01/18 09:20:17;;;;;;;21.20;14.20;;;;;;;-6.16;100.00;140783.75;106845;1260;25395;-61
2024/01/18 09:23:03;;;;;;;25.30;15.40;;;;;;;-6.15;100.00;140784.50;107002;1259;25344;-63
2024/01/18 09:25:58;;;;;;;25.40;15.70;;;;;;;-6.10;100.00;140797.09;106818;1260;25344;-61
2024/01/18 09:28:44;;;;;;;24.80;15.30;;;;;;;-6.12;100.00;140793.16;106843;1275;25357;-62
2024/01/18 09:31:30;;;;;;;21.70;15.00;;;;;;;-6.13;100.00;140791.17;107006;1269;22524;-63
2024/01/18 09:34:28;;;;;;;22.40;14.50;;;;;;;-6.11;100.00;140794.39;106963;1263;25507;-60
2024/01/18 09:37:13;;;;;;;29.10;16.00;;;;;;;-6.06;100.00;140806.27;106864;1257;25481;-62
2024/01/18 09:39:59;;;;;;;23.00;15.10;;;;;;;-6.03;100.00;140814.17;107151;1263;25465;-61
2024/01/18 09:42:46;;;;;;;25.80;16.60;;;;;;;-6.07;100.00;140804.77;106946;1259;25452;-61
2024/01/18 09:45:35;;;;;;;27.90;16.30;;;;;;;-6.13;100.00;140789.67;107001;1258;25603;-63
2024/01/18 09:48:22;;;;;;;24.50;15.80;;;;;;;-6.16;100.00;140784.00;107316;1257;22539;-63
2024/01/18 09:51:11;;;;;;;31.20;19.30;;;;;;;-6.16;100.00;140784.25;106992;1256;23761;-60
2024/01/18 09:53:56;;;;;;;25.00;16.20;;;;;;;-6.12;100.00;140792.41;107543;1253;22529;-60
2024/01/18 09:56:44;;;;;;;24.30;15.00;;;;;;;-6.05;100.00;140809.72;107536;1257;22523;-63
2024/01/18 09:59:31;;;;;;;25.50;16.40;;;;;;;-6.05;100.00;140809.47;107431;1253;23926;-63
2024/01/18 10:02:17;;;;;;;25.70;16.40;;;;;;;-5.99;100.00;140825.05;108333;1256;22519;-61
2024/01/18 10:05:04;;;;;;;27.30;18.20;;;;;;;-5.92;100.00;140840.33;107658;1254;22521;-61
2024/01/18 10:07:50;;;;;;;26.30;17.50;;;;;;;-5.90;100.00;140845.53;107351;1269;25366;-62
2024/01/18 10:10:36;;;;;;;25.60;16.20;;;;;;;-5.94;100.00;140837.36;107554;1260;25553;-61
2024/01/18 10:13:22;;;;;;;23.70;15.20;;;;;;;-5.92;100.00;140840.83;107691;1258;25431;-58
2024/01/18 10:16:08;;;;;;;28.90;17.50;;;;;;;-5.88;100.00;140850.47;107538;1257;22935;-59
2024/01/18 10:19:02;;;;;;;26.20;17.00;;;;;;;-5.82;100.00;140865.31;107592;1263;22960;-59
2024/01/18 10:21:48;;;;;;;24.80;16.20;;;;;;;-5.75;100.00;140880.61;108251;1256;22517;-59
2024/01/18 10:24:40;;;;;;;28.50;16.80;;;;;;;-5.79;100.00;140871.48;107527;1257;25334;-60
2024/01/18 10:27:28;;;;;;;25.30;16.90;;;;;;;-5.80;100.00;140869.75;107573;1257;23943;-67
2024/01/18 10:30:15;;;;;;;31.70;19.20;;;;;;;-5.77;100.00;140876.41;107540;1256;25344;-62
2024/01/18 10:33:01;;;;;;;31.20;18.40;;;;;;;-5.75;100.00;140881.36;107527;1255;22663;-63
2024/01/18 10:35:48;;;;;;;25.20;16.60;;;;;;;-5.82;100.00;140864.55;107198;1260;22624;-60
2024/01/18 10:38:34;;;;;;;27.90;18.20;;;;;;;-5.81;100.00;140866.03;107182;1260;24239;-62
2024/01/18 10:41:21;;;;;;;29.20;17.80;;;;;;;-5.73;100.00;140887.78;107694;1274;22519;-60
2024/01/18 10:44:08;;;;;;;29.80;19.60;;;;;;;-5.67;100.00;140901.63;107298;1257;25375;-61
2024/01/18 10:46:56;;;;;;;25.00;18.40;;;;;;;-5.70;100.00;140894.22;107185;1257;25415;-63
2024/01/18 10:49:45;;;;;;;26.70;17.80;;;;;;;-5.71;100.00;140892.52;106980;1257;24262;-61
2024/01/18 10:52:31;;;;;;;27.40;18.00;;;;;;;-5.63;100.00;140910.30;107058;1257;25343;-61
2024/01/18 10:55:17;;;;;;;30.10;18.60;;;;;;;-5.62;100.00;140913.03;107558;1256;25439;-61
2024/01/18 10:58:05;;;;;;;29.40;18.50;;;;;;;-5.71;100.00;140892.73;106993;1259;25571;-60
2024/01/18 11:00:53;;;;;;;27.80;17.40;;;;;;;-5.78;100.00;140873.72;107580;1257;25299;-63
2024/01/18 11:03:39;;;;;;;27.40;17.60;;;;;;;-5.81;100.00;140867.28;106995;1259;25408;-59
2024/01/18 11:06:27;;;;;;;28.40;18.60;;;;;;;-5.79;100.00;140871.72;107401;1257;25348;-60
2024/01/18 11:09:14;;;;;;;32.30;18.80;;;;;;;-5.78;100.00;140873.45;107071;1255;25243;-60
2024/01/18 11:12:03;;;;;;;31.80;20.30;;;;;;;-5.77;100.00;140875.92;107325;1254;25424;-63
2024/01/18 11:14:49;;;;;;;28.90;18.70;;;;;;;-5.78;100.00;140875.67;107159;1256;25369;-59
2024/01/18 11:17:35;;;;;;;29.40;18.40;;;;;;;-5.76;100.00;140880.38;108213;1257;22258;-61
2024/01/18 11:20:21;;;;;;;30.50;20.50;;;;;;;-5.74;100.00;140883.59;107790;1257;23411;-64
2024/01/18 11:23:07;;;;;;;32.40;19.80;;;;;;;-5.75;100.00;140880.63;108355;1254;23372;-61
2024/01/18 11:25:54;;;;;;;28.20;19.10;;;;;;;-5.76;100.00;140880.38;107604;1256;25363;-62
2024/01/18 11:28:40;;;;;;;31.10;18.80;;;;;;;-5.79;100.00;140872.97;107382;1262;25427;-57
2024/01/18 11:31:46;;;;;;;30.90;19.60;;;;;;;-5.73;100.00;140886.33;107460;1254;23175;-60
2024/01/18 11:34:38;;;;;;;35.60;21.90;;;;;;;-5.67;100.00;140901.41;107556;1259;25404;-63
2024/01/18 11:37:24;;;;;;;35.20;19.70;;;;;;;-5.64;100.00;140908.80;107669;1259;22851;-60
2024/01/18 11:40:10;;;;;;;33.60;20.90;;;;;;;-5.62;100.00;140913.53;107861;1260;23517;-62
2024/01/18 11:42:56;;;;;;;37.10;21.20;;;;;;;-5.61;100.00;140915.98;107159;1253;25363;-62
2024/01/18 11:45:47;;;;;;;32.20;19.50;;;;;;;-5.69;100.00;140897.92;107667;1259;25459;-59
2024/01/18 11:48:33;;;;;;;34.90;22.20;;;;;;;-5.70;100.00;140893.22;107103;1259;25542;-58
2024/01/18 11:51:19;;;;;;;29.30;18.70;;;;;;;-5.62;100.00;140912.78;107440;1256;22751;-60
2024/01/18 11:54:05;;;;;;;33.50;21.20;;;;;;;-5.56;100.00;140927.86;107025;1256;25532;-62
2024/01/18 11:56:55;;;;;;;30.00;18.50;;;;;;;-5.49;100.00;140944.41;107298;1256;25382;-61
2024/01/18 11:59:45;;;;;;;35.10;20.50;;;;;;;-5.47;100.00;140950.09;107437;1256;25366;-61
2024/01/18 12:02:32;;;;;;;34.00;20.60;;;;;;;-5.52;100.00;140939.22;107287;1257;25408;-61
2024/01/18 12:05:18;;;;;;;31.10;20.00;;;;;;;-5.57;100.00;140925.63;107268;1256;22535;-56
2024/01/18 12:08:05;;;;;;;34.40;20.10;;;;;;;-5.54;100.00;140934.53;107271;1275;25489;-60
2024/01/18 12:10:51;;;;;;;35.20;21.10;;;;;;;-5.46;100.00;140952.33;107008;1256;25487;-61
2024/01/18 12:13:40;;;;;;;32.00;20.80;;;;;;;-5.44;100.00;140956.28;107251;1269;25424;-60